sensor_id;sensor_type;location;lat;lon;timestamp;P1;durP1;ratioP1;P2;durP2;ratioP2
44276;SDS011;29973;43.742;1.236;2022-07-01T00:01:24;6.15;;;2.78;;
44276;SDS011;29973;43.742;1.236;2022-07-01T00:03:49;5.10;;;2.80;;
44276;SDS011;29973;43.742;1.236;2022-07-01T00:06:16;5.25;;;2.72;;
44276;SDS011;29973;43.742;1.236;2022-07-01T00:08:42;7.82;;;2.88;;
44276;SDS011;29973;43.742;1.236;2022-07-01T00:11:08;10.40;;;3.10;;
44276;SDS011;29973;43.742;1.236;2022-07-01T00:13:35;10.38;;;3.28;;
44276;SDS011;29973;43.742;1.236;2022-07-01T00:16:00;13.65;;;3.03;;
44276;SDS011;29973;43.742;1.236;2022-07-01T00:18:26;7.03;;;2.80;;
44276;SDS011;29973;43.742;1.236;2022-07-01T00:20:52;8.85;;;3.47;;
44276;SDS011;29973;43.742;1.236;2022-07-01T00:23:18;9.27;;;2.97;;
44276;SDS011;29973;43.742;1.236;2022-07-01T00:25:44;6.25;;;2.65;;
44276;SDS011;29973;43.742;1.236;2022-07-01T00:28:11;7.47;;;3.30;;
44276;SDS011;29973;43.742;1.236;2022-07-01T00:30:37;5.07;;;2.50;;
44276;SDS011;29973;43.742;1.236;2022-07-01T00:33:03;7.72;;;2.83;;
44276;SDS011;29973;43.742;1.236;2022-07-01T00:35:30;6.90;;;3.00;;
44276;SDS011;29973;43.742;1.236;2022-07-01T00:37:55;8.93;;;2.85;;
44276;SDS011;29973;43.742;1.236;2022-07-01T00:40:22;5.65;;;2.45;;
44276;SDS011;29973;43.742;1.236;2022-07-01T00:42:51;7.90;;;2.92;;
44276;SDS011;29973;43.742;1.236;2022-07-01T00:45:17;6.75;;;2.67;;
44276;SDS011;29973;43.742;1.236;2022-07-01T00:47:43;5.20;;;2.75;;
44276;SDS011;29973;43.742;1.236;2022-07-01T00:50:10;9.75;;;3.00;;
44276;SDS011;29973;43.742;1.236;2022-07-01T00:52:38;8.65;;;2.83;;
44276;SDS011;29973;43.742;1.236;2022-07-01T00:55:05;5.40;;;2.80;;
44276;SDS011;29973;43.742;1.236;2022-07-01T00:57:33;5.03;;;2.75;;
44276;SDS011;29973;43.742;1.236;2022-07-01T01:00:01;9.82;;;3.13;;
44276;SDS011;29973;43.742;1.236;2022-07-01T01:02:29;5.53;;;2.90;;
44276;SDS011;29973;43.742;1.236;2022-07-01T01:04:55;5.72;;;2.70;;
44276;SDS011;29973;43.742;1.236;2022-07-01T01:07:21;9.30;;;3.08;;
44276;SDS011;29973;43.742;1.236;2022-07-01T01:09:47;6.38;;;2.42;;
44276;SDS011;29973;43.742;1.236;2022-07-01T01:12:13;7.80;;;3.28;;
44276;SDS011;29973;43.742;1.236;2022-07-01T01:14:43;7.60;;;2.97;;
44276;SDS011;29973;43.742;1.236;2022-07-01T01:17:13;6.68;;;2.80;;
44276;SDS011;29973;43.742;1.236;2022-07-01T01:19:40;6.25;;;2.83;;
44276;SDS011;29973;43.742;1.236;2022-07-01T01:22:07;6.25;;;2.60;;
44276;SDS011;29973;43.742;1.236;2022-07-01T01:24:33;5.63;;;2.60;;
44276;SDS011;29973;43.742;1.236;2022-07-01T01:26:59;10.15;;;3.10;;
44276;SDS011;29973;43.742;1.236;2022-07-01T01:29:24;6.38;;;3.30;;
44276;SDS011;29973;43.742;1.236;2022-07-01T01:31:50;5.22;;;2.92;;
44276;SDS011;29973;43.742;1.236;2022-07-01T01:34:16;9.27;;;3.72;;
44276;SDS011;29973;43.742;1.236;2022-07-01T01:36:41;9.07;;;3.13;;
44276;SDS011;29973;43.742;1.236;2022-07-01T01:39:08;7.75;;;3.33;;
44276;SDS011;29973;43.742;1.236;2022-07-01T01:41:38;9.73;;;3.50;;
44276;SDS011;29973;43.742;1.236;2022-07-01T01:44:04;9.80;;;3.70;;
44276;SDS011;29973;43.742;1.236;2022-07-01T01:46:30;13.05;;;3.67;;
44276;SDS011;29973;43.742;1.236;2022-07-01T01:48:57;7.80;;;3.22;;
44276;SDS011;29973;43.742;1.236;2022-07-01T01:51:23;10.73;;;3.45;;
44276;SDS011;29973;43.742;1.236;2022-07-01T01:53:48;7.60;;;3.25;;
44276;SDS011;29973;43.742;1.236;2022-07-01T01:56:14;6.90;;;3.03;;
44276;SDS011;29973;43.742;1.236;2022-07-01T01:58:40;8.68;;;3.60;;
44276;SDS011;29973;43.742;1.236;2022-07-01T02:01:11;13.50;;;3.60;;
44276;SDS011;29973;43.742;1.236;2022-07-01T02:03:38;8.35;;;3.00;;
44276;SDS011;29973;43.742;1.236;2022-07-01T02:06:06;8.80;;;3.00;;
44276;SDS011;29973;43.742;1.236;2022-07-01T02:08:32;6.50;;;2.88;;
44276;SDS011;29973;43.742;1.236;2022-07-01T02:10:58;7.10;;;3.03;;
44276;SDS011;29973;43.742;1.236;2022-07-01T02:13:24;6.32;;;3.15;;
44276;SDS011;29973;43.742;1.236;2022-07-01T02:15:50;11.15;;;3.38;;
44276;SDS011;29973;43.742;1.236;2022-07-01T02:18:16;5.93;;;3.38;;
44276;SDS011;29973;43.742;1.236;2022-07-01T02:20:42;12.77;;;4.05;;
44276;SDS011;29973;43.742;1.236;2022-07-01T02:23:08;15.02;;;4.90;;
44276;SDS011;29973;43.742;1.236;2022-07-01T02:25:34;11.00;;;3.60;;
44276;SDS011;29973;43.742;1.236;2022-07-01T02:28:00;10.00;;;3.22;;
44276;SDS011;29973;43.742;1.236;2022-07-01T02:30:26;16.55;;;4.80;;
44276;SDS011;29973;43.742;1.236;2022-07-01T02:32:52;11.18;;;4.03;;
44276;SDS011;29973;43.742;1.236;2022-07-01T02:35:18;12.05;;;4.38;;
44276;SDS011;29973;43.742;1.236;2022-07-01T02:37:44;12.88;;;4.22;;
44276;SDS011;29973;43.742;1.236;2022-07-01T02:40:10;10.57;;;4.25;;
44276;SDS011;29973;43.742;1.236;2022-07-01T02:42:38;12.02;;;4.28;;
44276;SDS011;29973;43.742;1.236;2022-07-01T02:45:04;8.77;;;4.22;;
44276;SDS011;29973;43.742;1.236;2022-07-01T02:47:32;15.18;;;4.45;;
44276;SDS011;29973;43.742;1.236;2022-07-01T02:52:29;14.68;;;4.38;;
44276;SDS011;29973;43.742;1.236;2022-07-01T02:54:55;10.25;;;4.28;;
44276;SDS011;29973;43.742;1.236;2022-07-01T02:57:21;9.10;;;4.13;;
44276;SDS011;29973;43.742;1.236;2022-07-01T02:59:47;11.32;;;4.78;;
44276;SDS011;29973;43.742;1.236;2022-07-01T03:02:13;16.10;;;4.10;;
44276;SDS011;29973;43.742;1.236;2022-07-01T03:04:39;8.00;;;3.95;;
44276;SDS011;29973;43.742;1.236;2022-07-01T03:07:05;9.70;;;4.22;;
44276;SDS011;29973;43.742;1.236;2022-07-01T03:09:30;11.05;;;4.38;;
44276;SDS011;29973;43.742;1.236;2022-07-01T03:11:59;13.05;;;4.63;;
44276;SDS011;29973;43.742;1.236;2022-07-01T03:14:24;18.13;;;4.40;;
44276;SDS011;29973;43.742;1.236;2022-07-01T03:16:50;13.05;;;4.20;;
44276;SDS011;29973;43.742;1.236;2022-07-01T03:19:16;7.75;;;4.40;;
44276;SDS011;29973;43.742;1.236;2022-07-01T03:21:42;8.00;;;3.63;;
44276;SDS011;29973;43.742;1.236;2022-07-01T03:24:07;9.93;;;3.88;;
44276;SDS011;29973;43.742;1.236;2022-07-01T03:26:33;10.90;;;4.32;;
44276;SDS011;29973;43.742;1.236;2022-07-01T03:28:59;12.95;;;4.55;;
44276;SDS011;29973;43.742;1.236;2022-07-01T03:31:25;12.25;;;4.22;;
44276;SDS011;29973;43.742;1.236;2022-07-01T03:33:51;10.13;;;4.60;;
44276;SDS011;29973;43.742;1.236;2022-07-01T03:36:17;15.25;;;4.65;;
44276;SDS011;29973;43.742;1.236;2022-07-01T03:38:42;10.02;;;3.97;;
44276;SDS011;29973;43.742;1.236;2022-07-01T03:41:08;7.97;;;4.05;;
44276;SDS011;29973;43.742;1.236;2022-07-01T03:43:34;9.07;;;4.13;;
44276;SDS011;29973;43.742;1.236;2022-07-01T03:45:59;11.52;;;4.00;;
44276;SDS011;29973;43.742;1.236;2022-07-01T03:48:25;10.80;;;3.80;;
44276;SDS011;29973;43.742;1.236;2022-07-01T03:50:51;11.50;;;4.30;;
44276;SDS011;29973;43.742;1.236;2022-07-01T03:53:17;10.65;;;3.95;;
44276;SDS011;29973;43.742;1.236;2022-07-01T03:56:01;8.77;;;4.13;;
44276;SDS011;29973;43.742;1.236;2022-07-01T03:58:26;9.48;;;3.65;;
44276;SDS011;29973;43.742;1.236;2022-07-01T04:00:52;11.13;;;3.97;;
44276;SDS011;29973;43.742;1.236;2022-07-01T04:03:18;9.93;;;4.53;;
44276;SDS011;29973;43.742;1.236;2022-07-01T04:05:43;9.60;;;4.18;;
44276;SDS011;29973;43.742;1.236;2022-07-01T04:08:09;7.80;;;4.28;;
44276;SDS011;29973;43.742;1.236;2022-07-01T04:10:36;6.93;;;3.55;;
44276;SDS011;29973;43.742;1.236;2022-07-01T04:13:04;11.63;;;4.35;;
44276;SDS011;29973;43.742;1.236;2022-07-01T04:15:30;7.97;;;4.07;;
44276;SDS011;29973;43.742;1.236;2022-07-01T04:17:56;10.65;;;4.22;;
44276;SDS011;29973;43.742;1.236;2022-07-01T04:20:22;10.27;;;4.55;;
44276;SDS011;29973;43.742;1.236;2022-07-01T04:22:48;8.35;;;3.88;;
44276;SDS011;29973;43.742;1.236;2022-07-01T04:25:13;11.65;;;4.45;;
44276;SDS011;29973;43.742;1.236;2022-07-01T04:27:39;9.65;;;3.92;;
44276;SDS011;29973;43.742;1.236;2022-07-01T04:30:06;9.77;;;3.60;;
44276;SDS011;29973;43.742;1.236;2022-07-01T04:32:32;10.18;;;4.47;;
44276;SDS011;29973;43.742;1.236;2022-07-01T04:34:58;9.07;;;3.97;;
44276;SDS011;29973;43.742;1.236;2022-07-01T04:37:23;6.55;;;3.38;;
44276;SDS011;29973;43.742;1.236;2022-07-01T04:39:49;13.15;;;4.40;;
44276;SDS011;29973;43.742;1.236;2022-07-01T04:42:15;6.65;;;4.13;;
44276;SDS011;29973;43.742;1.236;2022-07-01T04:44:42;11.30;;;3.65;;
44276;SDS011;29973;43.742;1.236;2022-07-01T04:47:08;6.88;;;4.10;;
44276;SDS011;29973;43.742;1.236;2022-07-01T04:49:34;8.23;;;3.67;;
44276;SDS011;29973;43.742;1.236;2022-07-01T04:52:00;10.50;;;3.78;;
44276;SDS011;29973;43.742;1.236;2022-07-01T04:54:26;6.50;;;3.45;;
44276;SDS011;29973;43.742;1.236;2022-07-01T04:56:51;14.35;;;4.45;;
44276;SDS011;29973;43.742;1.236;2022-07-01T04:59:17;9.77;;;3.38;;
44276;SDS011;29973;43.742;1.236;2022-07-01T05:01:45;8.38;;;3.20;;
44276;SDS011;29973;43.742;1.236;2022-07-01T05:04:14;10.95;;;4.60;;
44276;SDS011;29973;43.742;1.236;2022-07-01T05:06:41;15.27;;;7.10;;
44276;SDS011;29973;43.742;1.236;2022-07-01T05:09:06;14.32;;;7.07;;
44276;SDS011;29973;43.742;1.236;2022-07-01T05:11:32;13.02;;;5.72;;
44276;SDS011;29973;43.742;1.236;2022-07-01T05:13:58;14.10;;;6.15;;
44276;SDS011;29973;43.742;1.236;2022-07-01T05:16:24;12.70;;;6.63;;
44276;SDS011;29973;43.742;1.236;2022-07-01T05:18:50;18.15;;;7.95;;
44276;SDS011;29973;43.742;1.236;2022-07-01T05:21:34;15.63;;;7.57;;
44276;SDS011;29973;43.742;1.236;2022-07-01T05:24:18;15.07;;;7.90;;
44276;SDS011;29973;43.742;1.236;2022-07-01T05:26:44;14.07;;;7.70;;
44276;SDS011;29973;43.742;1.236;2022-07-01T05:29:09;15.93;;;7.43;;
44276;SDS011;29973;43.742;1.236;2022-07-01T05:31:35;14.50;;;7.50;;
44276;SDS011;29973;43.742;1.236;2022-07-01T05:34:01;17.73;;;7.70;;
44276;SDS011;29973;43.742;1.236;2022-07-01T05:36:27;18.52;;;7.18;;
44276;SDS011;29973;43.742;1.236;2022-07-01T05:38:53;17.02;;;6.80;;
44276;SDS011;29973;43.742;1.236;2022-07-01T05:41:20;16.25;;;7.75;;
44276;SDS011;29973;43.742;1.236;2022-07-01T05:43:48;11.57;;;7.50;;
44276;SDS011;29973;43.742;1.236;2022-07-01T05:46:13;13.82;;;7.45;;
44276;SDS011;29973;43.742;1.236;2022-07-01T05:48:39;16.33;;;8.13;;
44276;SDS011;29973;43.742;1.236;2022-07-01T05:51:05;16.77;;;7.50;;
44276;SDS011;29973;43.742;1.236;2022-07-01T05:53:31;18.52;;;7.60;;
44276;SDS011;29973;43.742;1.236;2022-07-01T05:55:56;21.02;;;8.00;;
44276;SDS011;29973;43.742;1.236;2022-07-01T05:58:22;16.45;;;7.68;;
44276;SDS011;29973;43.742;1.236;2022-07-01T06:00:48;16.60;;;8.32;;
44276;SDS011;29973;43.742;1.236;2022-07-01T06:03:14;12.75;;;7.20;;
44276;SDS011;29973;43.742;1.236;2022-07-01T06:05:40;16.00;;;8.13;;
44276;SDS011;29973;43.742;1.236;2022-07-01T06:08:07;15.50;;;7.80;;
44276;SDS011;29973;43.742;1.236;2022-07-01T06:10:33;13.77;;;7.00;;
44276;SDS011;29973;43.742;1.236;2022-07-01T06:13:00;13.45;;;8.02;;
44276;SDS011;29973;43.742;1.236;2022-07-01T06:15:26;16.70;;;8.38;;
44276;SDS011;29973;43.742;1.236;2022-07-01T06:17:52;15.35;;;8.40;;
44276;SDS011;29973;43.742;1.236;2022-07-01T06:20:18;23.02;;;8.38;;
44276;SDS011;29973;43.742;1.236;2022-07-01T06:22:44;16.80;;;8.52;;
44276;SDS011;29973;43.742;1.236;2022-07-01T06:25:10;14.52;;;7.63;;
44276;SDS011;29973;43.742;1.236;2022-07-01T06:27:39;12.40;;;7.72;;
44276;SDS011;29973;43.742;1.236;2022-07-01T06:30:06;10.55;;;7.05;;
44276;SDS011;29973;43.742;1.236;2022-07-01T06:32:32;14.10;;;6.82;;
44276;SDS011;29973;43.742;1.236;2022-07-01T06:34:58;16.25;;;7.07;;
44276;SDS011;29973;43.742;1.236;2022-07-01T06:37:24;13.30;;;7.47;;
44276;SDS011;29973;43.742;1.236;2022-07-01T06:39:50;12.43;;;6.63;;
44276;SDS011;29973;43.742;1.236;2022-07-01T06:42:16;14.95;;;7.35;;
44276;SDS011;29973;43.742;1.236;2022-07-01T06:44:41;12.82;;;7.20;;
44276;SDS011;29973;43.742;1.236;2022-07-01T06:47:07;11.77;;;7.10;;
44276;SDS011;29973;43.742;1.236;2022-07-01T06:49:33;15.35;;;7.40;;
44276;SDS011;29973;43.742;1.236;2022-07-01T06:51:59;23.50;;;7.95;;
44276;SDS011;29973;43.742;1.236;2022-07-01T06:54:24;12.70;;;7.28;;
44276;SDS011;29973;43.742;1.236;2022-07-01T06:56:50;12.15;;;7.20;;
44276;SDS011;29973;43.742;1.236;2022-07-01T06:59:16;16.70;;;7.30;;
44276;SDS011;29973;43.742;1.236;2022-07-01T07:01:42;11.82;;;6.55;;
44276;SDS011;29973;43.742;1.236;2022-07-01T07:04:07;12.52;;;5.95;;
44276;SDS011;29973;43.742;1.236;2022-07-01T07:06:33;10.25;;;5.72;;
44276;SDS011;29973;43.742;1.236;2022-07-01T07:08:59;10.57;;;5.55;;
44276;SDS011;29973;43.742;1.236;2022-07-01T07:11:25;10.18;;;5.65;;
44276;SDS011;29973;43.742;1.236;2022-07-01T07:13:52;5.80;;;4.97;;
44276;SDS011;29973;43.742;1.236;2022-07-01T07:16:18;12.35;;;5.35;;
44276;SDS011;29973;43.742;1.236;2022-07-01T07:18:49;8.80;;;4.55;;
44276;SDS011;29973;43.742;1.236;2022-07-01T07:21:15;8.95;;;4.47;;
44276;SDS011;29973;43.742;1.236;2022-07-01T07:23:41;6.13;;;3.63;;
44276;SDS011;29973;43.742;1.236;2022-07-01T07:26:08;7.18;;;4.03;;
44276;SDS011;29973;43.742;1.236;2022-07-01T07:28:34;10.98;;;4.70;;
44276;SDS011;29973;43.742;1.236;2022-07-01T07:30:59;14.40;;;5.03;;
44276;SDS011;29973;43.742;1.236;2022-07-01T07:33:25;7.50;;;3.75;;
44276;SDS011;29973;43.742;1.236;2022-07-01T07:35:51;10.32;;;4.75;;
44276;SDS011;29973;43.742;1.236;2022-07-01T07:38:17;11.13;;;4.45;;
44276;SDS011;29973;43.742;1.236;2022-07-01T07:40:43;13.20;;;4.35;;
44276;SDS011;29973;43.742;1.236;2022-07-01T07:43:08;9.93;;;4.32;;
44276;SDS011;29973;43.742;1.236;2022-07-01T07:45:34;8.20;;;3.90;;
44276;SDS011;29973;43.742;1.236;2022-07-01T07:48:00;9.75;;;4.32;;
44276;SDS011;29973;43.742;1.236;2022-07-01T07:50:27;8.13;;;4.22;;
44276;SDS011;29973;43.742;1.236;2022-07-01T07:52:53;5.55;;;4.50;;
44276;SDS011;29973;43.742;1.236;2022-07-01T07:55:19;11.25;;;4.03;;
44276;SDS011;29973;43.742;1.236;2022-07-01T07:57:45;7.38;;;3.80;;
44276;SDS011;29973;43.742;1.236;2022-07-01T08:00:11;6.95;;;3.70;;
44276;SDS011;29973;43.742;1.236;2022-07-01T08:02:38;7.05;;;3.53;;
44276;SDS011;29973;43.742;1.236;2022-07-01T08:05:05;6.15;;;3.38;;
44276;SDS011;29973;43.742;1.236;2022-07-01T08:07:41;6.10;;;3.08;;
44276;SDS011;29973;43.742;1.236;2022-07-01T08:10:08;8.18;;;3.28;;
44276;SDS011;29973;43.742;1.236;2022-07-01T08:12:36;5.78;;;3.13;;
44276;SDS011;29973;43.742;1.236;2022-07-01T08:15:02;10.10;;;3.40;;
44276;SDS011;29973;43.742;1.236;2022-07-01T08:17:29;9.68;;;3.03;;
44276;SDS011;29973;43.742;1.236;2022-07-01T08:19:55;7.85;;;3.08;;
44276;SDS011;29973;43.742;1.236;2022-07-01T08:22:21;8.25;;;3.00;;
44276;SDS011;29973;43.742;1.236;2022-07-01T08:24:47;5.82;;;2.63;;
44276;SDS011;29973;43.742;1.236;2022-07-01T08:27:13;6.78;;;3.35;;
44276;SDS011;29973;43.742;1.236;2022-07-01T08:29:39;7.25;;;3.30;;
44276;SDS011;29973;43.742;1.236;2022-07-01T08:32:05;7.00;;;3.08;;
44276;SDS011;29973;43.742;1.236;2022-07-01T08:34:32;7.03;;;2.88;;
44276;SDS011;29973;43.742;1.236;2022-07-01T08:36:57;5.30;;;2.65;;
44276;SDS011;29973;43.742;1.236;2022-07-01T08:39:23;6.38;;;2.88;;
44276;SDS011;29973;43.742;1.236;2022-07-01T08:41:49;5.97;;;2.85;;
44276;SDS011;29973;43.742;1.236;2022-07-01T08:44:14;6.45;;;2.92;;
44276;SDS011;29973;43.742;1.236;2022-07-01T08:46:40;9.13;;;2.78;;
44276;SDS011;29973;43.742;1.236;2022-07-01T08:49:06;5.38;;;2.80;;
44276;SDS011;29973;43.742;1.236;2022-07-01T08:51:32;8.00;;;2.85;;
44276;SDS011;29973;43.742;1.236;2022-07-01T08:53:58;8.32;;;2.83;;
44276;SDS011;29973;43.742;1.236;2022-07-01T08:56:23;7.18;;;2.67;;
44276;SDS011;29973;43.742;1.236;2022-07-01T08:59:11;7.88;;;2.85;;
44276;SDS011;29973;43.742;1.236;2022-07-01T09:01:38;4.75;;;2.47;;
44276;SDS011;29973;43.742;1.236;2022-07-01T09:04:17;8.23;;;3.22;;
44276;SDS011;29973;43.742;1.236;2022-07-01T09:06:44;5.97;;;2.60;;
44276;SDS011;29973;43.742;1.236;2022-07-01T09:11:43;3.95;;;1.90;;
44276;SDS011;29973;43.742;1.236;2022-07-01T09:14:18;4.82;;;2.50;;
44276;SDS011;29973;43.742;1.236;2022-07-01T09:16:50;6.80;;;2.58;;
44276;SDS011;29973;43.742;1.236;2022-07-01T09:19:19;4.47;;;2.17;;
44276;SDS011;29973;43.742;1.236;2022-07-01T09:21:49;5.72;;;2.30;;
44276;SDS011;29973;43.742;1.236;2022-07-01T09:24:59;6.75;;;2.40;;
44276;SDS011;29973;43.742;1.236;2022-07-01T09:27:18;8.57;;;2.63;;
44276;SDS011;29973;43.742;1.236;2022-07-01T09:29:45;4.88;;;2.30;;
44276;SDS011;29973;43.742;1.236;2022-07-01T09:32:16;6.53;;;2.42;;
44276;SDS011;29973;43.742;1.236;2022-07-01T09:34:44;5.10;;;2.70;;
44276;SDS011;29973;43.742;1.236;2022-07-01T09:37:11;9.48;;;2.55;;
44276;SDS011;29973;43.742;1.236;2022-07-01T09:39:45;8.90;;;2.22;;
44276;SDS011;29973;43.742;1.236;2022-07-01T09:42:19;7.25;;;2.67;;
44276;SDS011;29973;43.742;1.236;2022-07-01T09:44:59;2.65;;;1.85;;
44276;SDS011;29973;43.742;1.236;2022-07-01T09:47:41;3.20;;;2.15;;
44276;SDS011;29973;43.742;1.236;2022-07-01T09:50:10;8.65;;;2.60;;
44276;SDS011;29973;43.742;1.236;2022-07-01T09:52:36;4.85;;;2.22;;
44276;SDS011;29973;43.742;1.236;2022-07-01T09:55:04;3.92;;;2.17;;
44276;SDS011;29973;43.742;1.236;2022-07-01T09:57:34;8.07;;;2.67;;
44276;SDS011;29973;43.742;1.236;2022-07-01T10:00:00;3.00;;;2.13;;
44276;SDS011;29973;43.742;1.236;2022-07-01T10:02:26;4.85;;;2.42;;
44276;SDS011;29973;43.742;1.236;2022-07-01T10:05:11;5.65;;;1.92;;
44276;SDS011;29973;43.742;1.236;2022-07-01T10:07:54;5.60;;;2.28;;
44276;SDS011;29973;43.742;1.236;2022-07-01T10:12:53;5.90;;;1.90;;
44276;SDS011;29973;43.742;1.236;2022-07-01T10:15:20;6.32;;;2.42;;
44276;SDS011;29973;43.742;1.236;2022-07-01T10:17:48;7.68;;;1.60;;
44276;SDS011;29973;43.742;1.236;2022-07-01T10:20:18;4.45;;;1.95;;
44276;SDS011;29973;43.742;1.236;2022-07-01T10:22:48;3.72;;;1.73;;
44276;SDS011;29973;43.742;1.236;2022-07-01T10:28:20;3.95;;;1.88;;
44276;SDS011;29973;43.742;1.236;2022-07-01T10:30:55;4.72;;;1.70;;
44276;SDS011;29973;43.742;1.236;2022-07-01T10:44:07;7.03;;;1.73;;
44276;SDS011;29973;43.742;1.236;2022-07-01T10:49:09;5.43;;;1.70;;
44276;SDS011;29973;43.742;1.236;2022-07-01T10:51:42;2.22;;;1.25;;
44276;SDS011;29973;43.742;1.236;2022-07-01T11:02:15;5.50;;;1.60;;
44276;SDS011;29973;43.742;1.236;2022-07-01T11:04:53;5.57;;;1.40;;
44276;SDS011;29973;43.742;1.236;2022-07-01T11:07:24;2.58;;;1.20;;
44276;SDS011;29973;43.742;1.236;2022-07-01T11:09:58;2.97;;;1.48;;
44276;SDS011;29973;43.742;1.236;2022-07-01T11:12:24;4.50;;;1.70;;
44276;SDS011;29973;43.742;1.236;2022-07-01T11:14:52;2.35;;;1.45;;
44276;SDS011;29973;43.742;1.236;2022-07-01T11:17:21;3.47;;;1.80;;
44276;SDS011;29973;43.742;1.236;2022-07-01T11:19:51;4.22;;;1.55;;
44276;SDS011;29973;43.742;1.236;2022-07-01T11:22:23;3.53;;;1.35;;
44276;SDS011;29973;43.742;1.236;2022-07-01T11:24:56;5.28;;;1.30;;
44276;SDS011;29973;43.742;1.236;2022-07-01T11:27:23;2.75;;;1.48;;
44276;SDS011;29973;43.742;1.236;2022-07-01T11:29:53;3.65;;;1.23;;
44276;SDS011;29973;43.742;1.236;2022-07-01T11:32:33;4.82;;;1.33;;
44276;SDS011;29973;43.742;1.236;2022-07-01T11:35:02;4.50;;;1.65;;
44276;SDS011;29973;43.742;1.236;2022-07-01T11:37:49;2.20;;;1.30;;
44276;SDS011;29973;43.742;1.236;2022-07-01T11:40:33;3.22;;;1.17;;
44276;SDS011;29973;43.742;1.236;2022-07-01T11:42:59;3.63;;;1.00;;
44276;SDS011;29973;43.742;1.236;2022-07-01T11:45:25;1.45;;;0.70;;
44276;SDS011;29973;43.742;1.236;2022-07-01T11:47:51;1.90;;;0.95;;
44276;SDS011;29973;43.742;1.236;2022-07-01T11:50:18;2.28;;;1.20;;
44276;SDS011;29973;43.742;1.236;2022-07-01T11:52:45;2.47;;;1.05;;
44276;SDS011;29973;43.742;1.236;2022-07-01T11:55:11;2.38;;;1.10;;
44276;SDS011;29973;43.742;1.236;2022-07-01T11:57:37;2.63;;;0.93;;
44276;SDS011;29973;43.742;1.236;2022-07-01T12:00:10;1.92;;;0.85;;
44276;SDS011;29973;43.742;1.236;2022-07-01T12:02:37;2.40;;;0.77;;
44276;SDS011;29973;43.742;1.236;2022-07-01T12:05:04;4.45;;;1.00;;
44276;SDS011;29973;43.742;1.236;2022-07-01T12:07:30;1.90;;;1.08;;
44276;SDS011;29973;43.742;1.236;2022-07-01T12:09:59;2.60;;;0.90;;
44276;SDS011;29973;43.742;1.236;2022-07-01T12:12:26;4.50;;;1.13;;
44276;SDS011;29973;43.742;1.236;2022-07-01T12:14:56;1.30;;;0.95;;
44276;SDS011;29973;43.742;1.236;2022-07-01T12:17:24;2.33;;;1.00;;
44276;SDS011;29973;43.742;1.236;2022-07-01T12:19:52;4.32;;;1.15;;
44276;SDS011;29973;43.742;1.236;2022-07-01T12:22:20;2.05;;;0.93;;
44276;SDS011;29973;43.742;1.236;2022-07-01T12:27:32;3.47;;;0.70;;
44276;SDS011;29973;43.742;1.236;2022-07-01T12:29:59;1.25;;;0.90;;
44276;SDS011;29973;43.742;1.236;2022-07-01T12:32:25;1.05;;;0.60;;
44276;SDS011;29973;43.742;1.236;2022-07-01T12:35:00;3.10;;;0.95;;
44276;SDS011;29973;43.742;1.236;2022-07-01T12:39:55;1.95;;;0.88;;
44276;SDS011;29973;43.742;1.236;2022-07-01T12:42:36;1.75;;;0.90;;
44276;SDS011;29973;43.742;1.236;2022-07-01T12:45:12;4.07;;;0.98;;
44276;SDS011;29973;43.742;1.236;2022-07-01T12:47:42;3.28;;;0.82;;
44276;SDS011;29973;43.742;1.236;2022-07-01T12:52:35;2.58;;;1.20;;
44276;SDS011;29973;43.742;1.236;2022-07-01T12:55:20;1.83;;;1.00;;
44276;SDS011;29973;43.742;1.236;2022-07-01T12:57:50;1.17;;;0.93;;
44276;SDS011;29973;43.742;1.236;2022-07-01T13:00:19;1.83;;;1.00;;
44276;SDS011;29973;43.742;1.236;2022-07-01T13:02:46;2.20;;;0.98;;
44276;SDS011;29973;43.742;1.236;2022-07-01T13:05:12;2.97;;;1.00;;
44276;SDS011;29973;43.742;1.236;2022-07-01T13:07:39;1.42;;;0.82;;
44276;SDS011;29973;43.742;1.236;2022-07-01T13:10:05;3.63;;;0.75;;
44276;SDS011;29973;43.742;1.236;2022-07-01T13:12:31;1.67;;;0.95;;
44276;SDS011;29973;43.742;1.236;2022-07-01T13:14:57;2.22;;;0.95;;
44276;SDS011;29973;43.742;1.236;2022-07-01T13:17:23;1.88;;;0.90;;
44276;SDS011;29973;43.742;1.236;2022-07-01T13:19:49;5.30;;;1.00;;
44276;SDS011;29973;43.742;1.236;2022-07-01T13:22:15;3.40;;;1.02;;
44276;SDS011;29973;43.742;1.236;2022-07-01T13:24:41;2.47;;;1.15;;
44276;SDS011;29973;43.742;1.236;2022-07-01T13:27:07;1.63;;;0.73;;
44276;SDS011;29973;43.742;1.236;2022-07-01T13:29:33;4.30;;;1.23;;
44276;SDS011;29973;43.742;1.236;2022-07-01T13:31:59;1.65;;;0.90;;
44276;SDS011;29973;43.742;1.236;2022-07-01T13:34:25;3.53;;;0.80;;
44276;SDS011;29973;43.742;1.236;2022-07-01T13:36:51;1.63;;;0.65;;
44276;SDS011;29973;43.742;1.236;2022-07-01T13:39:17;2.22;;;0.90;;
44276;SDS011;29973;43.742;1.236;2022-07-01T13:41:43;1.38;;;1.02;;
44276;SDS011;29973;43.742;1.236;2022-07-01T13:44:08;1.95;;;1.05;;
44276;SDS011;29973;43.742;1.236;2022-07-01T13:46:34;1.33;;;0.93;;
44276;SDS011;29973;43.742;1.236;2022-07-01T13:49:01;3.22;;;1.58;;
44276;SDS011;29973;43.742;1.236;2022-07-01T13:51:27;2.13;;;1.00;;
44276;SDS011;29973;43.742;1.236;2022-07-01T13:53:53;1.20;;;1.10;;
44276;SDS011;29973;43.742;1.236;2022-07-01T13:56:19;1.50;;;0.55;;
44276;SDS011;29973;43.742;1.236;2022-07-01T13:58:46;2.40;;;0.88;;
44276;SDS011;29973;43.742;1.236;2022-07-01T14:01:15;1.23;;;0.85;;
44276;SDS011;29973;43.742;1.236;2022-07-01T14:03:42;1.80;;;1.00;;
44276;SDS011;29973;43.742;1.236;2022-07-01T14:06:08;1.20;;;0.80;;
44276;SDS011;29973;43.742;1.236;2022-07-01T14:08:34;1.42;;;0.70;;
44276;SDS011;29973;43.742;1.236;2022-07-01T14:10:59;1.63;;;0.88;;
44276;SDS011;29973;43.742;1.236;2022-07-01T14:13:25;5.18;;;0.90;;
44276;SDS011;29973;43.742;1.236;2022-07-01T14:15:51;1.88;;;0.80;;
44276;SDS011;29973;43.742;1.236;2022-07-01T14:18:17;1.33;;;0.77;;
44276;SDS011;29973;43.742;1.236;2022-07-01T14:20:42;1.92;;;0.77;;
44276;SDS011;29973;43.742;1.236;2022-07-01T14:23:08;3.28;;;0.90;;
44276;SDS011;29973;43.742;1.236;2022-07-01T14:25:34;3.63;;;0.88;;
44276;SDS011;29973;43.742;1.236;2022-07-01T14:28:00;1.55;;;0.68;;
44276;SDS011;29973;43.742;1.236;2022-07-01T14:30:25;2.65;;;0.75;;
44276;SDS011;29973;43.742;1.236;2022-07-01T14:32:51;2.70;;;0.70;;
44276;SDS011;29973;43.742;1.236;2022-07-01T14:35:17;1.48;;;0.50;;
44276;SDS011;29973;43.742;1.236;2022-07-01T14:37:43;2.25;;;0.80;;
44276;SDS011;29973;43.742;1.236;2022-07-01T14:40:09;1.58;;;0.60;;
44276;SDS011;29973;43.742;1.236;2022-07-01T14:42:37;1.50;;;0.80;;
44276;SDS011;29973;43.742;1.236;2022-07-01T14:45:05;1.13;;;0.50;;
44276;SDS011;29973;43.742;1.236;2022-07-01T14:47:32;1.92;;;0.80;;
44276;SDS011;29973;43.742;1.236;2022-07-01T14:49:58;1.20;;;0.60;;
44276;SDS011;29973;43.742;1.236;2022-07-01T14:52:24;0.82;;;0.70;;
44276;SDS011;29973;43.742;1.236;2022-07-01T14:54:50;0.95;;;0.60;;
44276;SDS011;29973;43.742;1.236;2022-07-01T14:57:17;0.88;;;0.70;;
44276;SDS011;29973;43.742;1.236;2022-07-01T14:59:44;2.03;;;0.60;;
44276;SDS011;29973;43.742;1.236;2022-07-01T15:02:10;1.17;;;0.80;;
44276;SDS011;29973;43.742;1.236;2022-07-01T15:04:35;2.20;;;0.95;;
44276;SDS011;29973;43.742;1.236;2022-07-01T15:07:01;1.42;;;0.70;;
44276;SDS011;29973;43.742;1.236;2022-07-01T15:09:30;1.63;;;0.68;;
44276;SDS011;29973;43.742;1.236;2022-07-01T15:11:55;1.33;;;0.90;;
44276;SDS011;29973;43.742;1.236;2022-07-01T15:14:21;1.08;;;0.47;;
44276;SDS011;29973;43.742;1.236;2022-07-01T15:16:47;1.83;;;0.90;;
44276;SDS011;29973;43.742;1.236;2022-07-01T15:19:12;1.02;;;0.60;;
44276;SDS011;29973;43.742;1.236;2022-07-01T15:21:38;2.15;;;0.93;;
44276;SDS011;29973;43.742;1.236;2022-07-01T15:24:04;1.00;;;0.60;;